createdAt,value
2018-10-03T01:31:25.957Z,10.04
2018-10-03T01:31:26.530Z,10.06
2018-10-03T01:31:27.128Z,10.10
2018-10-03T01:31:27.730Z,10.09
2018-10-03T01:31:28.328Z,10.10
2018-10-03T01:31:28.927Z,10.06
2018-10-03T01:31:29.528Z,10.07
2018-10-03T01:31:30.129Z,10.07
2018-10-03T01:32:23.608Z,9.99
2018-10-03T01:32:24.181Z,10.03
2018-10-03T01:32:24.780Z,10.00
2018-10-03T01:32:25.382Z,10.04
2018-10-03T01:32:25.981Z,10.03
2018-10-03T01:32:26.580Z,10.01
2018-10-03T01:32:27.179Z,10.07
2018-10-03T01:32:27.782Z,9.99
2018-10-03T01:33:22.286Z,10.01
2018-10-03T01:33:22.857Z,10.06
2018-10-03T01:33:23.528Z,10.01
2018-10-03T01:33:24.056Z,10.03
2018-10-03T01:33:24.655Z,10.00
2018-10-03T01:33:25.255Z,9.99
2018-10-03T01:33:25.856Z,9.97
2018-10-03T01:33:26.459Z,10.04
2018-10-03T01:34:19.937Z,9.96
2018-10-03T01:34:20.512Z,9.99
2018-10-03T01:34:21.109Z,9.93
2018-10-03T01:34:21.718Z,9.97
2018-10-03T01:34:22.310Z,9.94
2018-10-03T01:34:22.909Z,9.96
2018-10-03T01:34:23.507Z,10.03
2018-10-03T01:34:24.108Z,9.99
2018-10-03T01:35:17.590Z,9.91
2018-10-03T01:35:18.164Z,9.93
2018-10-03T01:35:18.761Z,9.93
2018-10-03T01:35:19.362Z,9.97
2018-10-03T01:35:19.962Z,9.88
2018-10-03T01:35:20.564Z,9.97
2018-10-03T01:35:21.158Z,9.93
2018-10-03T01:35:21.763Z,9.93
2018-10-03T01:36:16.269Z,10.00
2018-10-03T01:36:16.840Z,9.96
2018-10-03T01:36:17.438Z,9.99
2018-10-03T01:36:18.035Z,10.03
2018-10-03T01:36:18.638Z,9.99
2018-10-03T01:36:19.236Z,9.94
2018-10-03T01:36:19.835Z,10.01
2018-10-03T01:36:20.435Z,10.00
2018-10-03T01:37:14.941Z,9.94
2018-10-03T01:37:15.513Z,10.03
2018-10-03T01:37:16.113Z,10.07
2018-10-03T01:37:16.714Z,10.06
2018-10-03T01:37:17.311Z,10.01
2018-10-03T01:37:17.911Z,10.03
2018-10-03T01:37:18.512Z,10.06
2018-10-03T01:37:19.113Z,10.01
2018-10-03T01:38:12.611Z,10.07
2018-10-03T01:38:13.200Z,10.04
2018-10-03T01:38:13.799Z,10.10
2018-10-03T01:38:14.368Z,10.09
2018-10-03T01:38:15.047Z,10.09
2018-10-03T01:38:15.592Z,10.01
2018-10-03T01:38:16.214Z,10.10
2018-10-03T01:38:16.817Z,10.06
2018-10-03T01:39:11.268Z,10.15
2018-10-03T01:39:11.841Z,10.07
2018-10-03T01:39:12.440Z,10.12
2018-10-03T01:39:13.039Z,10.09
2018-10-03T01:39:13.639Z,10.12
2018-10-03T01:39:14.240Z,10.09
2018-10-03T01:39:14.840Z,10.12
2018-10-03T01:39:15.439Z,10.07
2018-10-03T01:40:08.921Z,10.26
2018-10-03T01:40:09.497Z,10.26
2018-10-03T01:40:10.094Z,10.19
2018-10-03T01:40:10.693Z,10.19
2018-10-03T01:40:11.294Z,10.24
2018-10-03T01:40:11.892Z,10.19
2018-10-03T01:40:12.493Z,10.21
2018-10-03T01:40:13.094Z,10.26
2018-10-03T01:41:06.574Z,10.25
2018-10-03T01:41:07.145Z,10.26
2018-10-03T01:41:07.747Z,10.30
2018-10-03T01:41:08.345Z,10.30
2018-10-03T01:41:08.945Z,10.25
2018-10-03T01:41:09.553Z,10.32
2018-10-03T01:41:10.144Z,10.30
2018-10-03T01:41:10.745Z,10.22
2018-10-03T01:42:04.226Z,10.33
2018-10-03T01:42:04.799Z,10.33
2018-10-03T01:42:05.397Z,10.22
2018-10-03T01:42:05.997Z,10.32
2018-10-03T01:42:06.601Z,10.34
2018-10-03T01:42:07.201Z,10.37
2018-10-03T01:42:07.801Z,10.34
2018-10-03T01:42:08.397Z,10.19
2018-10-03T01:43:02.903Z,10.34
2018-10-03T01:43:03.472Z,10.32
2018-10-03T01:43:04.073Z,10.37
2018-10-03T01:43:04.671Z,10.32
2018-10-03T01:43:05.277Z,10.34
2018-10-03T01:43:05.870Z,10.37
2018-10-03T01:43:06.473Z,10.37
2018-10-03T01:43:07.071Z,10.33
2018-10-03T01:44:01.588Z,10.37
2018-10-03T01:44:02.148Z,10.36
2018-10-03T01:44:02.746Z,10.36
2018-10-03T01:44:03.345Z,10.33
2018-10-03T01:44:03.947Z,10.37
2018-10-03T01:44:04.547Z,10.33
2018-10-03T01:44:05.148Z,10.39
2018-10-03T01:44:05.746Z,10.37
2018-10-03T01:44:59.229Z,10.36
2018-10-03T01:44:59.800Z,10.40
2018-10-03T01:45:00.401Z,10.32
2018-10-03T01:45:00.999Z,10.39
2018-10-03T01:45:01.602Z,10.39
2018-10-03T01:45:02.205Z,10.40
2018-10-03T01:45:02.803Z,10.32
2018-10-03T01:45:03.399Z,10.44
2018-10-03T01:45:57.904Z,10.39
2018-10-03T01:45:58.483Z,10.39
2018-10-03T01:45:59.075Z,10.39
2018-10-03T01:45:59.680Z,10.37
2018-10-03T01:46:00.275Z,10.42
2018-10-03T01:46:00.874Z,10.36
2018-10-03T01:46:01.475Z,10.33
2018-10-03T01:46:02.074Z,10.42
2018-10-03T01:46:56.580Z,10.39
2018-10-03T01:46:57.152Z,10.37
2018-10-03T01:46:57.752Z,10.47
2018-10-03T01:46:58.351Z,10.34
2018-10-03T01:46:58.953Z,10.32
2018-10-03T01:46:59.556Z,10.36
2018-10-03T01:47:00.151Z,10.36
2018-10-03T01:47:00.753Z,10.47
2018-10-03T01:47:54.232Z,10.37
2018-10-03T01:47:54.804Z,10.36
2018-10-03T01:47:55.407Z,10.39
2018-10-03T01:47:56.003Z,10.42
2018-10-03T01:47:56.602Z,10.42
2018-10-03T01:47:57.203Z,10.40
2018-10-03T01:47:57.803Z,10.43
2018-10-03T01:47:58.403Z,10.43
2018-10-03T01:48:52.908Z,10.46
2018-10-03T01:48:53.481Z,10.46
2018-10-03T01:48:54.079Z,10.46
2018-10-03T01:48:54.677Z,10.44
2018-10-03T01:48:55.278Z,10.40
2018-10-03T01:48:55.883Z,10.39
2018-10-03T01:48:56.479Z,10.39
2018-10-03T01:48:57.078Z,10.51
2018-10-03T01:49:51.581Z,10.46
2018-10-03T01:49:52.155Z,10.42
2018-10-03T01:49:52.756Z,10.46
2018-10-03T01:49:53.355Z,10.43
2018-10-03T01:49:53.954Z,10.42
2018-10-03T01:49:54.553Z,10.43
2018-10-03T01:49:55.154Z,10.40
2018-10-03T01:49:55.752Z,10.44
2018-10-03T01:50:49.240Z,10.43
2018-10-03T01:50:49.807Z,10.40
2018-10-03T01:50:50.408Z,10.43
2018-10-03T01:50:51.010Z,10.44
2018-10-03T01:50:51.611Z,10.53
2018-10-03T01:50:52.209Z,10.44
2018-10-03T01:50:52.806Z,10.44
2018-10-03T01:50:53.406Z,10.51
2018-10-03T01:51:46.886Z,10.43
2018-10-03T01:51:47.459Z,10.43
2018-10-03T01:51:48.058Z,10.40
2018-10-03T01:51:48.658Z,10.39
2018-10-03T01:51:49.259Z,10.46
2018-10-03T01:51:49.862Z,10.47
2018-10-03T01:51:50.456Z,10.51
2018-10-03T01:51:51.056Z,10.39
2018-10-03T01:52:45.561Z,10.40
2018-10-03T01:52:46.135Z,10.42
2018-10-03T01:52:46.734Z,10.44
2018-10-03T01:52:47.335Z,10.44
2018-10-03T01:52:47.935Z,10.40
2018-10-03T01:52:48.538Z,10.43
2018-10-03T01:52:49.133Z,10.51
2018-10-03T01:52:49.733Z,10.43
2018-10-03T01:53:43.213Z,10.51
2018-10-03T01:53:43.787Z,10.46
2018-10-03T01:53:44.387Z,10.40
2018-10-03T01:53:44.986Z,10.43
2018-10-03T01:53:45.586Z,10.42
2018-10-03T01:53:46.191Z,10.44
2018-10-03T01:53:46.786Z,10.40
2018-10-03T01:53:47.385Z,10.42
2018-10-03T01:54:41.889Z,10.44
2018-10-03T01:54:42.461Z,10.37
2018-10-03T01:54:43.061Z,10.44
2018-10-03T01:54:43.661Z,10.42
2018-10-03T01:54:44.262Z,10.43
2018-10-03T01:54:44.869Z,10.51
2018-10-03T01:54:45.466Z,10.51
2018-10-03T01:54:46.060Z,10.39
2018-10-03T01:55:40.563Z,10.33
2018-10-03T01:55:41.137Z,10.43
2018-10-03T01:55:41.737Z,10.47
2018-10-03T01:55:42.342Z,10.36
2018-10-03T01:55:42.936Z,10.44
2018-10-03T01:55:43.540Z,10.46
2018-10-03T01:55:44.136Z,10.43
2018-10-03T01:55:44.736Z,10.36
2018-10-03T01:56:39.264Z,10.39
2018-10-03T01:56:39.813Z,10.44
2018-10-03T01:56:40.412Z,10.51
2018-10-03T01:56:41.012Z,10.42
2018-10-03T01:56:41.612Z,10.44
2018-10-03T01:56:42.217Z,10.47
2018-10-03T01:56:42.811Z,10.40
2018-10-03T01:56:43.414Z,10.44
2018-10-03T01:57:36.892Z,10.37
2018-10-03T01:57:37.465Z,10.40
2018-10-03T01:57:38.068Z,10.43
2018-10-03T01:57:38.665Z,10.42
2018-10-03T01:57:39.265Z,10.46
2018-10-03T01:57:39.867Z,10.44
2018-10-03T01:57:40.466Z,10.43
2018-10-03T01:57:41.068Z,10.42
2018-10-03T01:58:34.546Z,10.46
2018-10-03T01:58:35.116Z,10.39
2018-10-03T01:58:35.719Z,10.40
2018-10-03T01:58:36.317Z,10.51
2018-10-03T01:58:37.596Z,10.47
2018-10-03T01:58:38.101Z,10.39
2018-10-03T01:58:38.701Z,10.43
2018-10-03T01:59:33.220Z,10.42
2018-10-03T01:59:33.794Z,10.47
2018-10-03T01:59:34.393Z,10.42
2018-10-03T01:59:34.991Z,10.44
2018-10-03T01:59:35.592Z,10.47
2018-10-03T01:59:36.204Z,10.47
2018-10-03T01:59:36.790Z,10.43
2018-10-03T01:59:37.389Z,10.44
2018-10-03T02:00:30.872Z,10.46
2018-10-03T02:00:31.445Z,10.58
2018-10-03T02:00:32.043Z,10.52
2018-10-03T02:00:32.646Z,10.51
2018-10-03T02:00:33.244Z,10.55
2018-10-03T02:00:33.846Z,10.58
2018-10-03T02:00:34.443Z,10.55
2018-10-03T02:00:35.046Z,10.47
2018-10-03T02:01:29.547Z,10.56
2018-10-03T02:01:30.119Z,10.62
2018-10-03T02:01:30.721Z,10.58
2018-10-03T02:01:31.326Z,10.62
2018-10-03T02:01:31.918Z,10.53
2018-10-03T02:01:32.524Z,10.58
2018-10-03T02:01:33.119Z,10.59
2018-10-03T02:01:33.723Z,10.53
2018-10-03T02:02:37.338Z,10.68
2018-10-03T02:02:37.909Z,10.65
2018-10-03T02:02:38.509Z,10.66
2018-10-03T02:02:39.108Z,10.59
2018-10-03T02:02:39.708Z,10.76
2018-10-03T02:02:40.310Z,10.66
2018-10-03T02:02:40.908Z,10.68
2018-10-03T02:02:41.510Z,10.73
2018-10-03T02:03:34.998Z,10.66
2018-10-03T02:03:35.561Z,10.68
2018-10-03T02:03:36.161Z,10.71
2018-10-03T02:03:36.762Z,10.76
2018-10-03T02:03:37.359Z,10.70
2018-10-03T02:03:37.962Z,10.70
2018-10-03T02:03:38.561Z,10.66
2018-10-03T02:03:39.160Z,10.68
2018-10-03T02:04:32.641Z,10.66
2018-10-03T02:04:33.215Z,10.63
2018-10-03T02:04:33.813Z,10.77
2018-10-03T02:04:34.412Z,10.74
2018-10-03T02:04:35.013Z,10.74
2018-10-03T02:04:35.616Z,10.76
2018-10-03T02:04:36.212Z,10.71
2018-10-03T02:04:36.812Z,10.77
2018-10-03T02:05:31.315Z,10.74
2018-10-03T02:05:31.889Z,10.74
2018-10-03T02:05:32.511Z,10.76
2018-10-03T02:05:33.089Z,10.76
2018-10-03T02:05:33.687Z,10.76
2018-10-03T02:05:34.290Z,10.77
2018-10-03T02:05:34.889Z,10.71
2018-10-03T02:05:35.487Z,10.78
2018-10-03T02:06:29.992Z,10.76
2018-10-03T02:06:30.564Z,10.76
2018-10-03T02:06:31.165Z,10.92
2018-10-03T02:06:31.768Z,10.80
2018-10-03T02:06:32.365Z,10.89
2018-10-03T02:06:32.967Z,10.84
2018-10-03T02:06:33.563Z,10.84
2018-10-03T02:06:34.162Z,10.84
2018-10-03T02:07:27.643Z,10.86
2018-10-03T02:07:28.216Z,10.88
2018-10-03T02:07:28.815Z,10.88
2018-10-03T02:07:29.416Z,10.94
2018-10-03T02:07:30.016Z,10.95
2018-10-03T02:07:30.620Z,10.91
2018-10-03T02:07:31.213Z,10.92
2018-10-03T02:07:31.814Z,10.91
2018-10-03T02:08:25.302Z,11.03
2018-10-03T02:08:25.867Z,10.91
2018-10-03T02:08:26.471Z,10.89
2018-10-03T02:08:27.068Z,11.01
2018-10-03T02:08:27.668Z,10.96
2018-10-03T02:08:28.270Z,11.03
2018-10-03T02:08:28.867Z,10.98
2018-10-03T02:08:29.470Z,11.06
2018-10-03T02:09:22.947Z,11.06
2018-10-03T02:09:23.519Z,11.02
2018-10-03T02:09:24.122Z,11.02
2018-10-03T02:09:24.719Z,11.01
2018-10-03T02:09:25.335Z,11.02
2018-10-03T02:09:25.921Z,11.02
2018-10-03T02:09:26.519Z,11.03
2018-10-03T02:09:27.124Z,11.01
2018-10-03T02:10:21.623Z,11.02
2018-10-03T02:10:22.194Z,11.06
2018-10-03T02:10:22.796Z,11.03
2018-10-03T02:10:23.394Z,11.01
2018-10-03T02:10:23.992Z,11.10
2018-10-03T02:10:24.598Z,11.01
2018-10-03T02:10:25.193Z,11.09
2018-10-03T02:10:25.795Z,11.06
2018-10-03T02:11:19.281Z,11.07
2018-10-03T02:11:19.845Z,11.13
2018-10-03T02:11:20.447Z,11.06
2018-10-03T02:11:21.046Z,11.13
2018-10-03T02:11:21.648Z,11.10
2018-10-03T02:11:22.255Z,11.11
2018-10-03T02:11:22.846Z,11.13
2018-10-03T02:11:23.446Z,11.14
2018-10-03T02:12:16.927Z,11.11
2018-10-03T02:12:17.500Z,11.10
2018-10-03T02:12:18.099Z,11.10
2018-10-03T02:12:18.699Z,11.16
2018-10-03T02:12:19.299Z,11.16
2018-10-03T02:12:19.902Z,11.14
2018-10-03T02:12:20.499Z,11.13
2018-10-03T02:12:21.098Z,11.19
2018-10-03T02:13:15.605Z,11.11
2018-10-03T02:13:16.172Z,11.14
2018-10-03T02:13:16.773Z,11.07
2018-10-03T02:13:17.374Z,11.16
2018-10-03T02:13:17.974Z,11.11
2018-10-03T02:13:18.576Z,11.06
2018-10-03T02:13:19.171Z,11.13
2018-10-03T02:13:19.773Z,11.13
2018-10-03T02:14:13.258Z,11.13
2018-10-03T02:14:13.825Z,11.06
2018-10-03T02:14:14.427Z,11.17
2018-10-03T02:14:15.026Z,11.16
2018-10-03T02:14:15.626Z,11.17
2018-10-03T02:14:16.229Z,11.20
2018-10-03T02:14:16.823Z,11.17
2018-10-03T02:14:17.424Z,11.20
2018-10-03T02:15:11.928Z,11.17
2018-10-03T02:15:12.501Z,11.17
2018-10-03T02:15:13.101Z,11.17
2018-10-03T02:15:13.700Z,11.19
2018-10-03T02:15:14.301Z,11.24
2018-10-03T02:15:14.903Z,11.19
2018-10-03T02:15:15.502Z,11.20
2018-10-03T02:15:16.100Z,11.21
2018-10-03T02:16:10.605Z,11.29
2018-10-03T02:16:11.177Z,11.28
2018-10-03T02:16:11.778Z,11.29
2018-10-03T02:16:12.376Z,11.24
2018-10-03T02:16:12.977Z,11.29
2018-10-03T02:16:13.579Z,11.28
2018-10-03T02:16:14.177Z,11.24
2018-10-03T02:16:14.778Z,11.29
2018-10-03T02:17:08.263Z,11.27
2018-10-03T02:17:08.831Z,11.28
2018-10-03T02:17:09.429Z,11.25
2018-10-03T02:17:10.029Z,11.28
2018-10-03T02:17:10.631Z,11.28
2018-10-03T02:17:11.231Z,11.27
2018-10-03T02:17:11.830Z,11.25
2018-10-03T02:17:12.432Z,11.25
2018-10-03T02:18:14.407Z,11.24
2018-10-03T02:18:14.981Z,11.25
2018-10-03T02:18:15.580Z,11.21
2018-10-03T02:18:16.178Z,11.29
2018-10-03T02:18:16.780Z,11.35
2018-10-03T02:18:17.383Z,11.27
2018-10-03T02:18:17.978Z,11.28
2018-10-03T02:18:18.579Z,11.21
2018-10-03T02:18:19.181Z,11.29
2018-10-03T02:18:19.778Z,11.29
2018-10-03T02:18:20.379Z,11.31
2018-10-03T02:18:20.977Z,11.43
2018-10-03T02:21:01.177Z,11.29
2018-10-03T02:21:01.681Z,11.32
2018-10-03T02:21:02.281Z,11.38
2018-10-03T02:22:25.288Z,11.21
2018-10-03T02:22:25.860Z,11.32
2018-10-03T02:22:26.460Z,11.29
2018-10-03T02:22:27.060Z,11.28
2018-10-03T02:22:27.662Z,11.35
2018-10-03T02:22:28.265Z,11.41
2018-10-03T02:22:28.861Z,11.29
2018-10-03T02:22:29.460Z,11.28
2018-10-03T02:23:22.949Z,11.27
2018-10-03T02:23:23.517Z,11.24
2018-10-03T02:23:24.115Z,11.24
2018-10-03T02:23:24.713Z,11.28
2018-10-03T02:23:25.313Z,11.25
2018-10-03T02:23:25.916Z,11.25
2018-10-03T02:23:26.513Z,11.34
2018-10-03T02:23:27.116Z,11.24
2018-10-03T02:24:21.628Z,11.28
2018-10-03T02:24:22.190Z,11.24
2018-10-03T02:24:22.789Z,11.31
2018-10-03T02:24:23.388Z,11.29
2018-10-03T02:24:23.987Z,11.29
2018-10-03T02:24:24.590Z,11.25
2018-10-03T02:24:25.188Z,11.21
2018-10-03T02:24:25.788Z,11.25
2018-10-03T02:25:19.275Z,11.24
2018-10-03T02:25:19.841Z,11.31
2018-10-03T02:25:20.440Z,11.31
2018-10-03T02:25:21.048Z,11.28
2018-10-03T02:25:21.642Z,11.24
2018-10-03T02:25:22.243Z,11.25
2018-10-03T02:25:22.844Z,11.24
2018-10-03T02:25:23.440Z,11.29
2018-10-03T02:26:17.943Z,11.21
2018-10-03T02:26:18.518Z,11.31
2018-10-03T02:26:19.116Z,11.20
2018-10-03T02:26:19.719Z,11.19
2018-10-03T02:26:20.317Z,11.28
2018-10-03T02:26:20.918Z,11.31
2018-10-03T02:26:21.516Z,11.19
2018-10-03T02:26:22.115Z,11.21
2018-10-03T02:27:15.596Z,11.21
2018-10-03T02:27:16.172Z,11.20
2018-10-03T02:27:16.777Z,11.31
2018-10-03T02:27:17.380Z,11.28
2018-10-03T02:27:17.969Z,11.29
2018-10-03T02:27:18.571Z,11.24
2018-10-03T02:27:19.169Z,11.20
2018-10-03T02:27:19.768Z,11.27
2018-10-03T02:28:13.253Z,11.24
2018-10-03T02:28:13.822Z,11.25
2018-10-03T02:28:14.422Z,11.34
2018-10-03T02:28:15.021Z,11.24
2018-10-03T02:28:15.626Z,11.29
2018-10-03T02:28:16.224Z,11.29
2018-10-03T02:28:16.818Z,11.27
2018-10-03T02:28:17.420Z,11.31
2018-10-03T02:29:10.903Z,11.27
2018-10-03T02:29:11.474Z,11.34
2018-10-03T02:29:12.074Z,11.27
2018-10-03T02:29:12.671Z,11.28
2018-10-03T02:29:13.271Z,11.25
2018-10-03T02:29:13.882Z,11.24
2018-10-03T02:29:14.471Z,11.27
2018-10-03T02:29:15.071Z,11.27
2018-10-03T02:30:08.555Z,11.21
2018-10-03T02:30:09.125Z,11.28
2018-10-03T02:30:09.725Z,11.21
2018-10-03T02:30:10.325Z,11.24
2018-10-03T02:30:10.924Z,11.25
2018-10-03T02:30:11.525Z,11.25
2018-10-03T02:30:12.122Z,11.21
2018-10-03T02:30:12.723Z,11.24
2018-10-03T02:31:07.232Z,11.27
2018-10-03T02:31:07.801Z,11.20
2018-10-03T02:31:08.403Z,11.31
2018-10-03T02:31:09.001Z,11.21
2018-10-03T02:31:09.604Z,11.25
2018-10-03T02:31:10.201Z,11.20
2018-10-03T02:31:10.799Z,11.27
2018-10-03T02:31:11.399Z,11.29
2018-10-03T02:32:04.882Z,11.25
2018-10-03T02:32:05.453Z,11.24
2018-10-03T02:32:06.052Z,11.28
2018-10-03T02:32:06.656Z,11.27
2018-10-03T02:32:07.251Z,11.32
2018-10-03T02:32:07.853Z,11.24
2018-10-03T02:32:08.452Z,11.24
2018-10-03T02:32:09.051Z,11.29
2018-10-03T02:33:03.561Z,11.25
2018-10-03T02:33:04.126Z,11.31
2018-10-03T02:33:04.726Z,11.25
2018-10-03T02:33:05.326Z,11.29
2018-10-03T02:33:05.927Z,11.25
2018-10-03T02:33:06.527Z,11.27
2018-10-03T02:33:07.127Z,11.32
2018-10-03T02:33:07.725Z,11.29
2018-10-03T02:34:01.217Z,11.27
2018-10-03T02:34:01.779Z,11.32
2018-10-03T02:34:02.384Z,11.35
2018-10-03T02:34:03.000Z,11.39
2018-10-03T02:34:03.582Z,11.32
2018-10-03T02:34:04.181Z,11.31
2018-10-03T02:34:04.780Z,11.39
2018-10-03T02:34:05.377Z,11.21
2018-10-03T02:34:58.868Z,11.31
2018-10-03T02:34:59.433Z,11.27
2018-10-03T02:35:00.029Z,11.28
2018-10-03T02:35:00.629Z,11.32
2018-10-03T02:35:01.229Z,11.35
2018-10-03T02:35:01.833Z,11.28
2018-10-03T02:35:02.432Z,11.38
2018-10-03T02:35:03.029Z,11.31
2018-10-03T02:35:56.514Z,11.39
2018-10-03T02:35:57.083Z,11.29
2018-10-03T02:35:57.683Z,11.25
2018-10-03T02:35:58.287Z,11.27
2018-10-03T02:35:58.883Z,11.28
2018-10-03T02:35:59.483Z,11.31
2018-10-03T02:36:00.081Z,11.27
2018-10-03T02:36:00.684Z,11.32
2018-10-03T02:36:54.168Z,11.34
2018-10-03T02:36:54.734Z,11.28
2018-10-03T02:36:55.337Z,11.28
2018-10-03T02:36:55.936Z,11.27
2018-10-03T02:36:56.535Z,11.29
2018-10-03T02:36:57.136Z,11.25
2018-10-03T02:36:57.733Z,11.29
2018-10-03T02:36:58.336Z,11.39
2018-10-03T02:37:52.837Z,11.27
2018-10-03T02:37:53.409Z,11.24
2018-10-03T02:37:54.010Z,11.32
2018-10-03T02:37:54.609Z,11.32
2018-10-03T02:37:55.207Z,11.35
2018-10-03T02:37:55.815Z,11.27
2018-10-03T02:37:56.408Z,11.32
2018-10-03T02:37:57.007Z,11.27
2018-10-03T02:38:51.512Z,11.28
2018-10-03T02:38:52.085Z,11.27
2018-10-03T02:38:52.687Z,11.28
2018-10-03T02:38:53.285Z,11.29
2018-10-03T02:38:53.885Z,11.20
2018-10-03T02:38:54.488Z,11.27
2018-10-03T02:38:55.083Z,11.27
2018-10-03T02:38:55.684Z,11.21
2018-10-03T02:39:50.192Z,11.17
2018-10-03T02:39:50.764Z,11.29
2018-10-03T02:39:51.362Z,11.25
2018-10-03T02:39:51.960Z,11.20
2018-10-03T02:39:52.561Z,11.29
2018-10-03T02:39:53.163Z,11.31
2018-10-03T02:39:53.767Z,11.31
2018-10-03T02:39:54.360Z,11.27
2018-10-03T02:40:48.863Z,11.31
2018-10-03T02:40:49.436Z,11.28
2018-10-03T02:40:50.036Z,11.24
2018-10-03T02:40:50.635Z,11.27
2018-10-03T02:40:51.236Z,11.21
2018-10-03T02:40:51.838Z,11.25
2018-10-03T02:40:52.438Z,11.24
2018-10-03T02:40:53.038Z,11.31
2018-10-03T02:41:46.517Z,11.25
2018-10-03T02:41:47.090Z,11.28
2018-10-03T02:41:47.694Z,11.21
2018-10-03T02:41:48.293Z,11.34
2018-10-03T02:41:48.888Z,11.28
2018-10-03T02:41:49.489Z,11.24
2018-10-03T02:41:50.090Z,11.27
2018-10-03T02:41:50.688Z,11.28
2018-10-03T02:42:44.168Z,11.07
2018-10-03T02:42:44.743Z,11.21
2018-10-03T02:42:45.343Z,11.24
2018-10-03T02:42:45.942Z,11.24
2018-10-03T02:42:46.540Z,11.16
2018-10-03T02:42:47.142Z,11.19
2018-10-03T02:42:47.738Z,11.14
2018-10-03T02:42:48.340Z,11.11
2018-10-03T02:43:41.819Z,11.07
2018-10-03T02:43:42.393Z,11.17
2018-10-03T02:43:42.991Z,11.11
2018-10-03T02:43:43.590Z,11.14
2018-10-03T02:43:44.193Z,11.19
2018-10-03T02:43:44.793Z,11.10
2018-10-03T02:43:45.390Z,11.09
2018-10-03T02:43:45.990Z,11.11
2018-10-03T02:44:39.470Z,11.13
2018-10-03T02:44:40.045Z,11.06
2018-10-03T02:44:40.644Z,11.10
2018-10-03T02:44:41.244Z,11.13
2018-10-03T02:44:41.845Z,11.17
2018-10-03T02:44:42.445Z,11.13
2018-10-03T02:44:43.044Z,11.17
2018-10-03T02:44:43.644Z,11.09
2018-10-03T02:45:37.123Z,11.06
2018-10-03T02:45:37.697Z,11.14
2018-10-03T02:45:38.295Z,11.09
2018-10-03T02:45:38.895Z,11.11
2018-10-03T02:45:39.494Z,11.11
2018-10-03T02:45:40.096Z,11.13
2018-10-03T02:45:40.695Z,11.07
2018-10-03T02:45:41.315Z,11.11
2018-10-03T02:46:34.773Z,11.07
2018-10-03T02:46:35.350Z,11.13
2018-10-03T02:46:35.946Z,11.13
2018-10-03T02:46:36.547Z,11.06
2018-10-03T02:46:37.146Z,11.17
2018-10-03T02:46:37.749Z,11.13
2018-10-03T02:46:38.348Z,11.10
2018-10-03T02:46:38.945Z,11.10
2018-10-03T02:47:32.429Z,11.07
2018-10-03T02:47:33.001Z,11.11
2018-10-03T02:47:33.599Z,11.07
2018-10-03T02:47:34.198Z,11.11
2018-10-03T02:47:34.798Z,11.13
2018-10-03T02:47:35.400Z,11.13
2018-10-03T02:47:35.998Z,11.11
2018-10-03T02:47:36.597Z,11.16
2018-10-03T02:48:31.100Z,11.06
2018-10-03T02:48:31.676Z,11.14
2018-10-03T02:48:32.274Z,11.07
2018-10-03T02:48:32.880Z,11.02
2018-10-03T02:48:33.473Z,11.09
2018-10-03T02:48:34.074Z,11.01
2018-10-03T02:48:34.676Z,11.01
2018-10-03T02:48:35.274Z,11.03
2018-10-03T02:49:29.780Z,11.02
2018-10-03T02:49:30.349Z,11.06
2018-10-03T02:49:30.949Z,11.07
2018-10-03T02:49:31.549Z,11.10
2018-10-03T02:49:32.149Z,10.98
2018-10-03T02:49:32.751Z,11.03
2018-10-03T02:49:33.349Z,11.06
2018-10-03T02:49:33.948Z,10.99
2018-10-03T02:50:28.452Z,11.01
2018-10-03T02:50:29.027Z,11.06
2018-10-03T02:50:29.624Z,11.09
2018-10-03T02:50:30.227Z,11.10
2018-10-03T02:50:30.840Z,11.10
2018-10-03T02:50:31.427Z,11.03
2018-10-03T02:50:32.024Z,11.11
2018-10-03T02:50:32.623Z,11.06
2018-10-03T02:51:27.137Z,11.03
2018-10-03T02:51:27.702Z,11.06
2018-10-03T02:51:28.301Z,11.10
2018-10-03T02:51:28.902Z,11.03
2018-10-03T02:51:29.501Z,11.09
2018-10-03T02:51:30.102Z,11.09
2018-10-03T02:51:30.701Z,11.06
2018-10-03T02:51:31.301Z,11.09
2018-10-03T02:52:24.785Z,11.01
2018-10-03T02:52:25.353Z,11.09
2018-10-03T02:52:25.952Z,11.03
2018-10-03T02:52:26.553Z,11.11
2018-10-03T02:52:27.152Z,11.11
2018-10-03T02:52:27.754Z,11.03
2018-10-03T02:52:28.352Z,11.03
2018-10-03T02:52:28.953Z,11.09
2018-10-03T02:53:23.456Z,11.13
2018-10-03T02:53:24.028Z,11.10
2018-10-03T02:53:24.628Z,11.13
2018-10-03T02:53:25.227Z,11.13
2018-10-03T02:53:25.828Z,11.13
2018-10-03T02:53:26.431Z,11.11
2018-10-03T02:53:27.031Z,11.07
2018-10-03T02:53:27.629Z,11.14
2018-10-03T02:54:21.114Z,11.11
2018-10-03T02:54:21.681Z,11.13
2018-10-03T02:54:22.283Z,11.11
2018-10-03T02:54:22.880Z,11.14
2018-10-03T02:54:23.487Z,11.11
2018-10-03T02:54:24.083Z,11.14
2018-10-03T02:54:24.685Z,11.14
2018-10-03T02:54:25.284Z,11.13
2018-10-03T02:55:19.782Z,11.14
2018-10-03T02:55:20.355Z,11.11
2018-10-03T02:55:20.956Z,11.11
2018-10-03T02:55:21.555Z,11.16
2018-10-03T02:55:22.153Z,11.07
2018-10-03T02:55:22.757Z,11.16
2018-10-03T02:55:23.356Z,11.10
2018-10-03T02:55:23.955Z,11.13
2018-10-03T02:56:18.462Z,11.03
2018-10-03T02:56:19.032Z,11.13
2018-10-03T02:56:19.634Z,11.06
2018-10-03T02:56:20.232Z,11.10
2018-10-03T02:56:20.831Z,11.16
2018-10-03T02:56:21.433Z,11.09
2018-10-03T02:56:22.032Z,11.13
2018-10-03T02:56:22.630Z,11.06
2018-10-03T02:57:16.119Z,11.06
2018-10-03T02:57:16.685Z,11.10
2018-10-03T02:57:17.284Z,11.13
2018-10-03T02:57:17.884Z,11.09
2018-10-03T02:57:18.485Z,11.01
2018-10-03T02:57:19.085Z,11.06
2018-10-03T02:57:19.685Z,11.09
2018-10-03T02:57:20.290Z,11.07
2018-10-03T02:58:13.770Z,11.06
2018-10-03T02:58:14.337Z,11.02
2018-10-03T02:58:14.937Z,11.09
2018-10-03T02:58:15.536Z,11.07
2018-10-03T02:58:16.134Z,11.07
2018-10-03T02:58:16.737Z,11.01
2018-10-03T02:58:17.336Z,11.06
2018-10-03T02:58:17.935Z,11.06
2018-10-03T02:59:12.437Z,11.02
2018-10-03T02:59:13.015Z,11.01
2018-10-03T02:59:13.610Z,11.02
2018-10-03T02:59:14.209Z,11.03
2018-10-03T02:59:14.812Z,11.02
2018-10-03T02:59:15.411Z,11.01
2018-10-03T02:59:16.009Z,11.02
2018-10-03T02:59:16.607Z,11.03
2018-10-03T03:00:11.114Z,11.06
2018-10-03T03:00:11.685Z,10.96
2018-10-03T03:00:12.288Z,10.95
2018-10-03T03:00:12.896Z,10.98
2018-10-03T03:00:13.489Z,11.03
2018-10-03T03:00:14.091Z,10.96
2018-10-03T03:00:14.687Z,11.06
2018-10-03T03:00:15.283Z,11.01
2018-10-03T03:01:08.768Z,11.06
2018-10-03T03:01:09.338Z,11.06
2018-10-03T03:01:09.939Z,11.02
2018-10-03T03:01:10.537Z,11.03
2018-10-03T03:01:11.137Z,11.02
2018-10-03T03:01:11.739Z,10.89
2018-10-03T03:01:12.338Z,10.89
2018-10-03T03:01:12.943Z,11.03
2018-10-03T03:02:07.439Z,10.98
2018-10-03T03:02:08.013Z,10.99
2018-10-03T03:02:08.613Z,10.98
2018-10-03T03:02:09.212Z,10.86
2018-10-03T03:03:22.711Z,10.92
2018-10-03T03:03:23.278Z,10.94
2018-10-03T03:03:23.881Z,10.91
2018-10-03T03:03:24.480Z,10.91
2018-10-03T03:03:25.083Z,10.91
2018-10-03T03:03:25.679Z,10.91
2018-10-03T03:03:26.281Z,10.89
2018-10-03T03:03:26.882Z,10.86
2018-10-03T03:04:20.362Z,10.88
2018-10-03T03:04:20.931Z,10.95
2018-10-03T03:04:21.530Z,10.94
2018-10-03T03:04:22.130Z,10.89
2018-10-03T03:04:22.730Z,10.94
2018-10-03T03:04:23.332Z,10.94
2018-10-03T03:04:23.930Z,10.94
2018-10-03T03:04:24.543Z,10.94
2018-10-03T03:05:18.014Z,10.88
2018-10-03T03:05:18.585Z,10.91
2018-10-03T03:05:19.183Z,10.96
2018-10-03T03:05:19.781Z,10.95
2018-10-03T03:05:20.385Z,10.92
2018-10-03T03:05:20.984Z,10.95
2018-10-03T03:05:21.582Z,10.88
2018-10-03T03:05:22.181Z,10.95
2018-10-03T03:06:16.684Z,10.96
2018-10-03T03:06:17.256Z,10.94
2018-10-03T03:06:17.856Z,10.99
2018-10-03T03:06:18.456Z,10.95
2018-10-03T03:06:19.056Z,10.94
2018-10-03T03:06:19.659Z,10.92
2018-10-03T03:06:20.255Z,10.98
2018-10-03T03:06:20.856Z,10.92
2018-10-03T03:07:15.361Z,10.86
2018-10-03T03:07:15.935Z,10.99
2018-10-03T03:07:16.534Z,10.95
2018-10-03T03:07:17.134Z,10.98
2018-10-03T03:07:17.733Z,10.94
2018-10-03T03:07:18.333Z,10.99
2018-10-03T03:07:18.933Z,10.92
2018-10-03T03:07:19.531Z,10.92
2018-10-03T03:08:13.011Z,10.91
2018-10-03T03:08:13.588Z,10.91
2018-10-03T03:08:14.185Z,10.92
2018-10-03T03:08:14.786Z,10.89